Time;durP1;ratioP1;P1;durP2;ratioP2;P2;SDS_P1;SDS_P2;PMS_P1;PMS_P2;Temp;Humidity;BMP_temperature;BMP_pressure;BME280_temperature;BME280_humidity;BME280_pressure;Samples;Min_cycle;Max_cycle;Signal;HPM_P1;HPM_P2
2023/11/28 00:02:06;;;;;;;11.13;9.17;;;0.80;99.90;;;;;;5084884;28;20325;-65
2023/11/28 00:04:35;;;;;;;11.17;8.90;;;0.80;99.90;;;;;;5085416;28;20270;-65
2023/11/28 00:07:01;;;;;;;12.97;8.87;;;0.80;99.90;;;;;;5085189;28;20209;-64
2023/11/28 00:09:28;;;;;;;11.33;9.07;;;0.80;99.90;;;;;;5084936;28;20265;-64
2023/11/28 00:11:55;;;;;;;13.47;9.37;;;0.80;99.90;;;;;;5085059;28;20314;-65
2023/11/28 00:14:22;;;;;;;11.87;9.13;;;0.80;99.90;;;;;;5085176;28;20297;-64
2023/11/28 00:16:49;;;;;;;12.00;8.97;;;0.80;99.90;;;;;;5084478;28;20209;-65
2023/11/28 00:19:17;;;;;;;11.67;9.03;;;0.80;99.90;;;;;;5084685;28;20221;-65
2023/11/28 00:21:45;;;;;;;10.50;9.17;;;0.70;99.90;;;;;;5084701;28;20731;-65
2023/11/28 00:24:12;;;;;;;12.30;9.80;;;0.70;99.90;;;;;;5084078;28;20385;-65
2023/11/28 00:26:39;;;;;;;11.20;9.27;;;0.70;99.90;;;;;;5083977;28;20771;-65
2023/11/28 00:29:06;;;;;;;10.17;8.80;;;0.70;99.90;;;;;;5084947;28;20604;-64
2023/11/28 00:31:32;;;;;;;13.90;9.60;;;0.70;99.90;;;;;;5083950;28;20604;-65
2023/11/28 00:33:59;;;;;;;12.23;8.90;;;0.70;99.90;;;;;;5084400;28;20305;-64
2023/11/28 00:36:27;;;;;;;12.57;8.87;;;0.70;99.90;;;;;;5084295;28;20293;-64
2023/11/28 00:38:55;;;;;;;11.40;8.37;;;0.60;99.90;;;;;;5084743;28;20199;-64
2023/11/28 00:41:24;;;;;;;11.63;9.23;;;0.60;99.90;;;;;;5084833;28;20290;-64
2023/11/28 00:43:51;;;;;;;12.30;8.73;;;0.70;99.90;;;;;;5084347;28;20254;-64
2023/11/28 00:46:18;;;;;;;10.97;8.90;;;0.60;99.90;;;;;;5084566;28;20230;-65
2023/11/28 00:48:46;;;;;;;10.53;9.00;;;0.60;99.90;;;;;;5084300;28;20235;-65
2023/11/28 00:51:14;;;;;;;11.07;8.30;;;0.60;99.90;;;;;;5083247;28;20207;-65
2023/11/28 00:53:41;;;;;;;10.07;8.80;;;0.70;99.90;;;;;;5084368;28;20579;-65
2023/11/28 00:56:19;;;;;;;10.33;8.80;;;0.60;99.90;;;;;;5084228;28;20305;-64
2023/11/28 00:58:45;;;;;;;10.27;8.20;;;0.60;99.90;;;;;;5084508;28;20579;-65
2023/11/28 01:01:13;;;;;;;13.53;8.90;;;0.70;99.90;;;;;;5084535;28;20286;-65
2023/11/28 01:03:40;;;;;;;15.10;9.50;;;0.70;99.90;;;;;;5084611;28;20234;-65
2023/11/28 01:06:08;;;;;;;9.83;8.63;;;0.70;99.90;;;;;;5084489;28;20314;-65
2023/11/28 01:08:36;;;;;;;12.00;9.33;;;0.70;99.90;;;;;;5084187;28;20237;-65
2023/11/28 01:11:03;;;;;;;10.53;8.73;;;0.60;99.90;;;;;;5084240;28;20210;-65
2023/11/28 01:13:31;;;;;;;12.90;9.00;;;0.70;99.90;;;;;;5084366;28;20301;-65
2023/11/28 01:15:58;;;;;;;14.63;9.43;;;0.70;99.90;;;;;;5084645;28;20305;-65
2023/11/28 01:18:25;;;;;;;12.40;9.43;;;0.70;99.90;;;;;;5084416;28;20210;-65
2023/11/28 01:20:52;;;;;;;11.53;9.27;;;0.70;99.90;;;;;;5084569;28;20218;-65
2023/11/28 01:23:19;;;;;;;14.20;10.43;;;0.70;99.90;;;;;;5084564;28;20317;-65
2023/11/28 01:25:46;;;;;;;13.07;10.23;;;0.70;99.90;;;;;;5083875;28;20294;-65
2023/11/28 01:28:12;;;;;;;15.70;10.13;;;0.70;99.90;;;;;;5083975;28;20299;-65
2023/11/28 01:30:41;;;;;;;13.60;10.17;;;0.70;99.90;;;;;;5084289;28;20215;-65
2023/11/28 01:33:08;;;;;;;16.30;10.70;;;0.70;99.90;;;;;;5084727;28;20636;-65
2023/11/28 01:35:35;;;;;;;16.03;11.00;;;0.70;99.90;;;;;;5084009;28;20631;-65
2023/11/28 01:38:02;;;;;;;16.43;10.57;;;0.70;99.90;;;;;;5084650;28;20286;-65
2023/11/28 01:40:29;;;;;;;14.57;10.60;;;0.70;99.90;;;;;;5087682;28;20202;-65
2023/11/28 01:42:59;;;;;;;13.57;10.20;;;0.70;99.90;;;;;;5087812;28;20788;-65
2023/11/28 01:45:27;;;;;;;13.37;10.53;;;0.70;99.90;;;;;;5087273;28;20222;-65
2023/11/28 01:47:56;;;;;;;15.20;11.40;;;0.60;99.90;;;;;;5087810;28;20309;-65
2023/11/28 01:50:24;;;;;;;13.47;10.50;;;0.60;99.90;;;;;;5087655;28;20199;-65
2023/11/28 01:52:51;;;;;;;15.47;10.60;;;0.70;99.90;;;;;;5087260;28;20210;-65
2023/11/28 01:55:19;;;;;;;13.40;10.33;;;0.60;99.90;;;;;;5087683;28;20214;-65
2023/11/28 01:57:46;;;;;;;13.07;10.43;;;0.60;99.90;;;;;;5087414;28;20238;-65
2023/11/28 02:00:14;;;;;;;13.53;9.37;;;0.60;99.90;;;;;;5087345;28;20305;-65
2023/11/28 02:02:42;;;;;;;12.53;9.17;;;0.60;99.90;;;;;;5086951;28;20294;-65
2023/11/28 02:05:11;;;;;;;10.77;9.40;;;0.60;99.90;;;;;;5087235;28;20226;-65
2023/11/28 02:07:40;;;;;;;10.20;9.03;;;0.60;99.90;;;;;;5087023;28;20672;-65
2023/11/28 02:10:08;;;;;;;13.60;9.97;;;0.60;99.90;;;;;;5087471;28;20191;-65
2023/11/28 02:12:35;;;;;;;13.80;9.53;;;0.60;99.90;;;;;;5086618;28;20207;-65
2023/11/28 02:15:02;;;;;;;12.47;9.53;;;0.60;99.90;;;;;;5087229;28;20298;-65
2023/11/28 02:17:29;;;;;;;11.43;9.63;;;0.60;99.90;;;;;;5087014;28;20198;-65
2023/11/28 02:19:57;;;;;;;12.83;8.97;;;0.50;99.90;;;;;;5087199;28;20226;-65
2023/11/28 02:22:26;;;;;;;12.40;9.37;;;0.60;99.90;;;;;;5087355;28;20218;-65
2023/11/28 02:24:55;;;;;;;11.93;8.80;;;0.60;99.90;;;;;;5087302;28;20662;-65
2023/11/28 02:27:24;;;;;;;15.10;9.50;;;0.60;99.90;;;;;;5087287;28;20290;-65
2023/11/28 02:29:51;;;;;;;11.90;8.67;;;0.60;99.90;;;;;;5087095;28;20578;-65
2023/11/28 02:32:18;;;;;;;12.97;9.60;;;0.60;99.90;;;;;;5080222;28;20231;-65
2023/11/28 02:34:45;;;;;;;11.97;9.17;;;0.50;99.90;;;;;;5067061;28;20298;-65
2023/11/28 02:37:11;;;;;;;10.83;8.80;;;0.40;99.90;;;;;;5066829;28;20303;-65
2023/11/28 02:39:38;;;;;;;15.30;9.03;;;0.50;99.90;;;;;;5077379;28;20217;-65
2023/11/28 02:42:06;;;;;;;14.37;9.90;;;0.50;99.90;;;;;;5087051;28;20215;-65
2023/11/28 02:44:34;;;;;;;11.80;9.33;;;0.50;99.90;;;;;;5086638;28;20309;-65
2023/11/28 02:47:01;;;;;;;14.20;9.83;;;0.50;99.90;;;;;;5086806;28;20249;-64
2023/11/28 02:49:28;;;;;;;14.03;9.87;;;0.50;99.90;;;;;;5085712;28;20298;-65
2023/11/28 02:51:55;;;;;;;13.80;9.47;;;0.50;99.90;;;;;;5086545;28;20217;-65
2023/11/28 02:54:21;;;;;;;13.40;9.07;;;0.50;99.90;;;;;;5086881;28;20297;-65
2023/11/28 02:56:48;;;;;;;13.70;9.13;;;0.50;99.90;;;;;;5086196;28;20246;-65
2023/11/28 02:59:15;;;;;;;11.03;8.77;;;0.40;99.90;;;;;;5086684;28;20217;-66
2023/11/28 03:01:44;;;;;;;12.83;8.80;;;0.40;99.90;;;;;;5085939;28;20211;-64
2023/11/28 03:04:10;;;;;;;11.70;8.87;;;0.40;99.90;;;;;;5086470;28;20226;-65
2023/11/28 03:06:37;;;;;;;11.43;8.40;;;0.40;99.90;;;;;;5085874;28;20299;-65
2023/11/28 03:09:04;;;;;;;11.13;8.03;;;0.40;99.90;;;;;;5085804;28;20270;-65
2023/11/28 03:11:31;;;;;;;12.03;8.43;;;0.40;99.90;;;;;;5085994;28;20206;-65
2023/11/28 03:13:58;;;;;;;11.80;8.73;;;0.50;99.90;;;;;;5086285;28;20230;-65
2023/11/28 03:16:25;;;;;;;13.20;8.33;;;0.50;99.90;;;;;;5085826;28;20309;-65
2023/11/28 03:18:53;;;;;;;11.07;8.67;;;0.40;99.90;;;;;;5085705;28;20729;-65
2023/11/28 03:21:20;;;;;;;8.83;7.73;;;0.50;99.90;;;;;;5086298;28;20294;-65
2023/11/28 03:23:47;;;;;;;10.73;7.80;;;0.40;99.90;;;;;;5085834;28;20210;-66
2023/11/28 03:26:14;;;;;;;11.07;7.80;;;0.40;99.90;;;;;;5085773;28;20291;-67
2023/11/28 03:28:41;;;;;;;9.90;7.77;;;0.40;99.90;;;;;;5084861;28;20732;-64
2023/11/28 03:31:08;;;;;;;11.90;7.27;;;0.40;99.90;;;;;;5085712;28;20242;-64
2023/11/28 03:33:35;;;;;;;10.47;7.83;;;0.40;99.90;;;;;;5069756;28;20298;-64
2023/11/28 03:36:04;;;;;;;10.93;7.67;;;0.30;99.90;;;;;;5064055;28;20345;-64
2023/11/28 03:38:32;;;;;;;9.70;7.10;;;0.20;99.90;;;;;;5065246;28;20319;-65
2023/11/28 03:40:59;;;;;;;9.57;6.67;;;0.20;99.90;;;;;;5084125;28;20214;-64
2023/11/28 03:43:25;;;;;;;10.70;8.37;;;0.20;99.90;;;;;;5083730;28;20958;-65
2023/11/28 03:45:52;;;;;;;10.43;7.80;;;0.30;99.90;;;;;;5083643;28;20831;-64
2023/11/28 03:48:19;;;;;;;9.47;7.23;;;0.30;99.90;;;;;;5083558;28;20317;-64
2023/11/28 03:50:46;;;;;;;8.73;6.83;;;0.30;99.90;;;;;;5083800;28;20222;-64
2023/11/28 03:53:14;;;;;;;8.40;7.33;;;0.30;99.90;;;;;;5083304;28;20604;-64
2023/11/28 03:55:41;;;;;;;8.07;6.50;;;0.30;99.90;;;;;;5086623;28;20202;-64
2023/11/28 03:58:08;;;;;;;8.93;6.30;;;0.20;99.90;;;;;;5086251;28;20859;-64
2023/11/28 04:00:35;;;;;;;8.60;6.30;;;0.20;99.90;;;;;;5092006;28;20573;-64
2023/11/28 04:03:02;;;;;;;7.00;5.90;;;0.30;99.90;;;;;;5087595;28;20209;-64
2023/11/28 04:05:29;;;;;;;10.37;6.67;;;0.20;99.90;;;;;;5092272;28;20310;-64
2023/11/28 04:07:56;;;;;;;8.33;6.10;;;0.30;99.90;;;;;;5087521;28;20346;-64
2023/11/28 04:10:24;;;;;;;6.73;5.90;;;0.20;99.90;;;;;;5083786;28;20214;-64
2023/11/28 04:12:51;;;;;;;7.97;6.27;;;0.20;99.90;;;;;;5083414;28;20293;-63
2023/11/28 04:15:18;;;;;;;7.90;6.10;;;0.20;99.90;;;;;;5084105;28;20594;-64
2023/11/28 04:17:45;;;;;;;7.87;5.70;;;0.20;99.90;;;;;;5083797;28;20210;-64
2023/11/28 04:20:12;;;;;;;6.20;5.07;;;0.20;99.90;;;;;;5085057;28;20310;-64
2023/11/28 04:22:39;;;;;;;7.47;5.10;;;0.10;99.90;;;;;;5084618;28;20232;-64
2023/11/28 04:25:07;;;;;;;6.93;5.50;;;0.10;99.90;;;;;;5085025;28;20242;-64
2023/11/28 04:27:35;;;;;;;6.43;4.93;;;0.20;99.90;;;;;;5084429;28;20669;-64
2023/11/28 04:30:02;;;;;;;6.77;4.73;;;0.10;99.90;;;;;;5084885;28;20297;-64
2023/11/28 04:32:29;;;;;;;5.43;4.60;;;0.10;99.90;;;;;;5084577;28;20205;-64
2023/11/28 04:34:56;;;;;;;5.27;4.77;;;0.10;99.90;;;;;;5084943;28;20297;-64
2023/11/28 04:37:23;;;;;;;5.83;4.67;;;0.20;99.90;;;;;;5084690;28;20207;-63
2023/11/28 04:39:50;;;;;;;6.10;4.57;;;0.10;99.90;;;;;;5084287;28;20736;-64
2023/11/28 04:42:17;;;;;;;5.40;4.10;;;0.10;99.90;;;;;;5084961;28;20295;-64
2023/11/28 04:44:46;;;;;;;4.80;4.20;;;0.10;99.90;;;;;;5084761;28;20267;-64
2023/11/28 04:47:12;;;;;;;6.80;4.27;;;0.10;99.90;;;;;;5084623;28;20230;-64
2023/11/28 04:49:39;;;;;;;4.73;4.17;;;0.10;99.90;;;;;;5084755;28;20207;-64
2023/11/28 04:52:07;;;;;;;4.70;4.30;;;0.20;99.90;;;;;;5084379;28;20306;-64
2023/11/28 04:54:35;;;;;;;5.20;4.00;;;0.10;99.90;;;;;;5084479;28;20688;-64
2023/11/28 04:57:02;;;;;;;4.67;3.83;;;0.20;99.90;;;;;;5084148;28;20217;-64
2023/11/28 04:59:29;;;;;;;4.67;3.77;;;0.20;99.90;;;;;;5070423;28;20324;-64
2023/11/28 05:01:57;;;;;;;3.90;3.60;;;0.20;99.90;;;;;;5063712;28;20327;-64
2023/11/28 05:04:24;;;;;;;4.40;3.87;;;0.20;99.90;;;;;;5064006;28;20692;-64
2023/11/28 05:06:51;;;;;;;6.13;4.03;;;0.30;99.90;;;;;;5063952;28;20212;-64
2023/11/28 05:09:18;;;;;;;4.40;4.00;;;0.30;99.90;;;;;;5064002;28;20312;-64
2023/11/28 05:11:45;;;;;;;4.20;3.57;;;0.20;99.90;;;;;;5064102;28;20211;-64
2023/11/28 05:14:12;;;;;;;4.50;3.87;;;0.20;99.90;;;;;;5083688;28;20306;-64
2023/11/28 05:16:39;;;;;;;3.83;3.40;;;0.20;99.90;;;;;;5088203;28;20207;-64
2023/11/28 05:19:07;;;;;;;3.57;3.27;;;0.10;99.90;;;;;;5087990;28;20677;-64
2023/11/28 05:21:34;;;;;;;4.00;3.43;;;0.10;99.90;;;;;;5087830;28;20293;-64
2023/11/28 05:24:01;;;;;;;4.93;3.77;;;0.10;99.90;;;;;;5069441;28;20302;-64
2023/11/28 05:26:28;;;;;;;3.80;3.50;;;0.10;99.90;;;;;;5087777;28;20270;-64
2023/11/28 05:28:55;;;;;;;4.50;3.53;;;0.20;99.90;;;;;;5087938;28;20301;-64
2023/11/28 05:31:22;;;;;;;3.57;3.27;;;0.10;99.90;;;;;;5087473;28;20210;-64
2023/11/28 05:33:49;;;;;;;3.83;3.43;;;0.10;99.90;;;;;;5087646;28;20306;-64
2023/11/28 05:36:17;;;;;;;3.80;3.03;;;0.10;99.90;;;;;;5087756;28;20214;-64
2023/11/28 05:38:44;;;;;;;3.67;3.33;;;0.10;99.90;;;;;;5087395;28;20290;-64
2023/11/28 05:41:11;;;;;;;3.73;3.40;;;0.10;99.90;;;;;;5087909;28;20326;-64
2023/11/28 05:43:38;;;;;;;3.80;3.50;;;0.10;99.90;;;;;;5087462;28;20210;-64
2023/11/28 05:46:06;;;;;;;3.67;3.37;;;0.20;99.90;;;;;;5087395;28;20229;-64
2023/11/28 05:48:33;;;;;;;5.73;3.67;;;0.10;99.90;;;;;;5087337;28;20227;-64
2023/11/28 05:51:00;;;;;;;4.10;3.70;;;0.10;99.90;;;;;;5087827;28;20209;-64
2023/11/28 05:53:28;;;;;;;4.17;3.77;;;0.10;99.90;;;;;;5087705;28;20305;-64
2023/11/28 05:55:55;;;;;;;4.30;3.13;;;0.20;99.90;;;;;;5087372;28;20297;-64
2023/11/28 05:58:22;;;;;;;5.43;3.37;;;0.10;99.90;;;;;;5085884;28;20208;-64
2023/11/28 06:00:49;;;;;;;3.73;3.33;;;0.10;99.90;;;;;;5087410;28;20307;-64
2023/11/28 06:03:16;;;;;;;3.67;3.33;;;0.10;99.90;;;;;;5087770;28;20202;-64
2023/11/28 06:05:43;;;;;;;3.80;3.50;;;0.10;99.90;;;;;;5087440;28;20882;-64
2023/11/28 06:08:10;;;;;;;4.20;3.90;;;0.10;99.90;;;;;;5087227;28;20234;-64
2023/11/28 06:10:38;;;;;;;4.20;3.83;;;0.10;99.90;;;;;;5087027;28;20218;-64
2023/11/28 06:13:06;;;;;;;4.53;3.30;;;0.10;99.90;;;;;;5087291;28;20293;-64
2023/11/28 06:15:32;;;;;;;5.30;4.03;;;0.10;99.90;;;;;;5087063;28;20265;-63
2023/11/28 06:17:59;;;;;;;4.80;4.03;;;0.10;99.90;;;;;;5087234;28;20207;-64
2023/11/28 06:20:27;;;;;;;5.60;3.83;;;0.10;99.90;;;;;;5087328;28;20301;-66
2023/11/28 06:22:53;;;;;;;4.70;4.10;;;0.00;99.90;;;;;;5096205;28;20323;-64
2023/11/28 06:25:20;;;;;;;4.27;3.90;;;0.00;99.90;;;;;;5094784;28;20235;-64
2023/11/28 06:27:49;;;;;;;5.40;3.67;;;0.00;99.90;;;;;;5086586;28;20213;-65
2023/11/28 06:30:16;;;;;;;5.03;4.50;;;0.10;99.90;;;;;;5086863;28;20294;-64
2023/11/28 06:32:43;;;;;;;8.00;4.03;;;0.00;99.90;;;;;;5086821;28;20971;-64
2023/11/28 06:35:10;;;;;;;4.97;4.43;;;0.10;99.90;;;;;;5087349;28;20359;-64
2023/11/28 06:37:38;;;;;;;5.83;4.80;;;0.20;99.90;;;;;;5086580;28;20222;-64
2023/11/28 06:40:06;;;;;;;5.53;4.60;;;0.30;99.90;;;;;;5086762;28;20202;-64
2023/11/28 06:42:33;;;;;;;6.40;4.47;;;0.30;99.90;;;;;;5086550;28;20289;-64
2023/11/28 06:45:02;;;;;;;5.53;4.83;;;0.30;99.90;;;;;;5086596;28;20298;-64
2023/11/28 06:47:29;;;;;;;8.87;5.20;;;0.30;99.90;;;;;;5086153;28;20331;-64
2023/11/28 06:49:57;;;;;;;6.40;4.97;;;0.30;99.90;;;;;;5086732;28;20572;-64
2023/11/28 06:52:24;;;;;;;5.90;4.97;;;0.30;99.90;;;;;;5086511;28;20217;-64
2023/11/28 06:54:51;;;;;;;6.73;4.97;;;0.30;99.90;;;;;;5086228;28;20319;-63
2023/11/28 06:57:18;;;;;;;6.77;5.27;;;0.40;99.90;;;;;;5086292;28;20214;-64
2023/11/28 06:59:45;;;;;;;5.27;4.77;;;0.30;99.90;;;;;;5086308;28;20287;-64
2023/11/28 07:02:13;;;;;;;8.27;6.20;;;0.30;99.90;;;;;;5086185;28;20298;-64
2023/11/28 07:04:42;;;;;;;8.27;6.03;;;0.30;99.90;;;;;;5086352;28;20211;-63
2023/11/28 07:07:08;;;;;;;7.00;5.50;;;0.30;99.90;;;;;;5085949;28;20278;-63
2023/11/28 07:09:36;;;;;;;9.00;6.17;;;0.20;99.90;;;;;;5085886;28;20329;-63
2023/11/28 07:12:03;;;;;;;9.07;6.57;;;0.20;99.90;;;;;;5085963;28;20666;-63
2023/11/28 07:14:30;;;;;;;6.33;5.67;;;0.20;99.90;;;;;;5085956;28;20318;-63
2023/11/28 07:16:57;;;;;;;9.00;6.17;;;0.20;99.90;;;;;;5085803;28;20217;-62
2023/11/28 07:19:25;;;;;;;8.80;6.37;;;0.20;99.90;;;;;;5085674;28;20325;-63
2023/11/28 07:21:52;;;;;;;7.73;6.10;;;0.20;99.90;;;;;;5085903;28;20297;-63
2023/11/28 07:24:20;;;;;;;10.90;7.07;;;0.20;99.90;;;;;;5085711;28;20221;-64
2023/11/28 07:26:46;;;;;;;8.93;6.40;;;0.20;99.90;;;;;;5085666;28;20321;-64
2023/11/28 07:29:13;;;;;;;10.50;7.50;;;0.20;99.90;;;;;;5086035;28;20213;-64
2023/11/28 07:31:40;;;;;;;10.00;6.67;;;0.10;99.90;;;;;;5085695;28;20262;-64
2023/11/28 07:34:07;;;;;;;8.63;7.10;;;0.20;99.90;;;;;;5085678;28;20235;-64
2023/11/28 07:36:36;;;;;;;9.73;7.03;;;0.30;99.90;;;;;;5085594;28;20285;-64
2023/11/28 07:39:03;;;;;;;11.53;7.23;;;0.30;99.90;;;;;;5085653;28;20209;-64
2023/11/28 07:41:31;;;;;;;11.50;7.40;;;0.30;99.90;;;;;;5085458;28;20218;-65
2023/11/28 07:43:58;;;;;;;10.43;6.90;;;0.30;99.90;;;;;;5085619;28;20207;-64
2023/11/28 07:46:26;;;;;;;9.70;7.10;;;0.30;99.90;;;;;;5085510;28;20246;-62
2023/11/28 07:48:53;;;;;;;9.13;7.83;;;0.40;99.90;;;;;;5085727;28;20698;-63
2023/11/28 07:51:19;;;;;;;10.87;8.20;;;0.40;99.90;;;;;;5085447;28;20271;-63
2023/11/28 07:53:48;;;;;;;10.60;7.70;;;0.40;99.90;;;;;;5084905;28;20297;-63
2023/11/28 07:56:17;;;;;;;12.53;7.73;;;0.40;99.90;;;;;;5085677;28;20209;-63
2023/11/28 07:58:44;;;;;;;9.50;7.37;;;0.40;99.90;;;;;;5085457;28;20294;-63
2023/11/28 08:01:11;;;;;;;9.83;7.80;;;0.30;99.90;;;;;;5085416;28;20277;-63
2023/11/28 08:03:38;;;;;;;10.00;7.60;;;0.40;99.90;;;;;;5084878;28;20298;-63
2023/11/28 08:06:06;;;;;;;11.80;7.97;;;0.40;99.90;;;;;;5085165;28;20237;-63
2023/11/28 08:08:34;;;;;;;12.83;8.30;;;0.40;99.90;;;;;;5084642;28;20279;-63
2023/11/28 08:11:02;;;;;;;12.50;9.00;;;0.40;99.90;;;;;;5084774;28;20213;-63
2023/11/28 08:13:31;;;;;;;11.20;8.47;;;0.40;99.90;;;;;;5084552;28;20669;-63
2023/11/28 08:15:58;;;;;;;11.23;8.53;;;0.40;99.90;;;;;;5084588;28;20959;-63
2023/11/28 08:18:26;;;;;;;12.90;9.20;;;0.50;99.90;;;;;;5084944;28;20297;-62
2023/11/28 08:20:52;;;;;;;10.43;8.70;;;0.50;99.90;;;;;;5085178;28;20229;-63
2023/11/28 08:23:19;;;;;;;13.07;9.20;;;0.50;99.90;;;;;;5084897;28;20301;-62
2023/11/28 08:25:46;;;;;;;12.50;9.53;;;0.50;99.90;;;;;;5084673;28;20238;-63
2023/11/28 08:28:14;;;;;;;13.50;9.73;;;0.50;99.90;;;;;;5084621;28;20249;-62
2023/11/28 08:30:41;;;;;;;12.80;9.37;;;0.60;99.90;;;;;;5084692;28;20284;-63
2023/11/28 08:33:08;;;;;;;14.47;10.27;;;0.50;99.90;;;;;;5084420;28;20293;-63
2023/11/28 08:35:35;;;;;;;14.03;10.37;;;0.50;99.90;;;;;;5084514;28;20203;-62
2023/11/28 08:38:02;;;;;;;11.03;9.27;;;0.50;99.90;;;;;;5084564;28;20321;-63
2023/11/28 08:40:29;;;;;;;12.37;9.93;;;0.50;99.90;;;;;;5084627;28;20317;-63
2023/11/28 08:42:56;;;;;;;13.63;9.73;;;0.50;99.90;;;;;;5084657;28;20293;-63
2023/11/28 08:45:24;;;;;;;13.87;9.83;;;0.60;99.90;;;;;;5084603;28;20207;-63
2023/11/28 08:47:51;;;;;;;13.20;9.80;;;0.60;99.90;;;;;;5085262;28;20249;-64
2023/11/28 08:50:18;;;;;;;12.90;10.00;;;0.60;99.90;;;;;;5088564;28;20206;-63
2023/11/28 08:52:45;;;;;;;13.23;10.03;;;0.70;99.90;;;;;;5088769;28;20207;-63
2023/11/28 08:55:12;;;;;;;12.60;9.80;;;0.60;99.90;;;;;;5088372;28;20213;-63
2023/11/28 08:57:39;;;;;;;12.87;9.57;;;0.60;99.90;;;;;;5088527;28;20297;-63
2023/11/28 09:00:07;;;;;;;13.53;9.67;;;0.60;99.90;;;;;;5088790;28;20265;-63
2023/11/28 09:02:35;;;;;;;12.43;9.60;;;0.70;99.90;;;;;;5088550;28;20297;-63
2023/11/28 09:05:02;;;;;;;12.70;9.73;;;0.60;99.90;;;;;;5088679;28;20932;-62
2023/11/28 09:07:29;;;;;;;12.17;9.97;;;0.60;99.90;;;;;;5087823;28;20798;-64
2023/11/28 09:09:56;;;;;;;13.87;9.90;;;0.60;99.90;;;;;;5088435;28;20226;-63
2023/11/28 09:12:23;;;;;;;11.47;9.30;;;0.70;99.90;;;;;;5087998;28;20648;-63
2023/11/28 09:14:50;;;;;;;13.80;9.70;;;0.60;99.90;;;;;;5088153;28;20287;-63
2023/11/28 09:17:17;;;;;;;13.23;9.87;;;0.70;99.90;;;;;;5087856;28;20206;-63
2023/11/28 09:19:45;;;;;;;11.27;8.97;;;0.70;99.90;;;;;;5098898;28;20785;-63
2023/11/28 09:22:12;;;;;;;11.57;8.97;;;0.60;99.90;;;;;;5092167;28;20293;-64
2023/11/28 09:24:39;;;;;;;13.13;9.60;;;0.70;99.90;;;;;;5086392;28;20234;-63
2023/11/28 09:27:07;;;;;;;11.60;9.23;;;0.60;99.90;;;;;;5067788;28;20321;-63
2023/11/28 09:29:35;;;;;;;11.53;8.87;;;0.60;99.90;;;;;;5067701;28;20218;-63
2023/11/28 09:32:03;;;;;;;11.77;8.70;;;0.60;99.90;;;;;;5067476;28;20334;-63
2023/11/28 09:34:31;;;;;;;10.67;8.20;;;0.70;99.90;;;;;;5067803;28;20210;-63
2023/11/28 09:36:59;;;;;;;11.97;9.07;;;0.70;99.90;;;;;;5067570;28;20215;-63
2023/11/28 09:39:26;;;;;;;11.40;9.20;;;0.70;99.90;;;;;;5076604;28;20213;-63
2023/11/28 09:41:54;;;;;;;11.13;8.67;;;0.70;99.90;;;;;;5087880;28;20625;-64
2023/11/28 09:44:25;;;;;;;10.60;8.53;;;0.70;99.90;;;;;;5088049;28;20305;-63
2023/11/28 09:46:56;;;;;;;13.10;9.03;;;0.70;99.90;;;;;;5086989;28;20231;-62
2023/11/28 09:49:24;;;;;;;10.43;8.03;;;0.70;99.90;;;;;;5087797;28;20195;-63
2023/11/28 09:51:54;;;;;;;9.97;8.43;;;0.80;99.90;;;;;;5087556;28;20851;-63
2023/11/28 09:54:24;;;;;;;9.77;8.13;;;0.70;99.90;;;;;;5087834;28;20231;-63
2023/11/28 09:56:52;;;;;;;9.70;8.00;;;0.70;99.90;;;;;;5087689;28;20308;-63
2023/11/28 09:59:20;;;;;;;11.40;7.97;;;0.80;99.90;;;;;;5086409;28;20230;-64
2023/11/28 10:01:47;;;;;;;10.90;8.40;;;0.80;99.90;;;;;;5087520;28;20206;-63
2023/11/28 10:04:14;;;;;;;12.03;9.30;;;0.80;99.90;;;;;;5087750;28;20210;-63
2023/11/28 10:06:44;;;;;;;10.77;8.67;;;0.80;99.90;;;;;;5087714;28;20341;-63
2023/11/28 10:09:12;;;;;;;11.43;9.13;;;0.80;99.90;;;;;;5087480;28;20345;-63
2023/11/28 10:11:43;;;;;;;10.33;8.43;;;0.80;99.90;;;;;;5087491;28;20313;-62
2023/11/28 10:14:10;;;;;;;12.17;8.37;;;0.80;99.90;;;;;;5087531;28;20428;-62
2023/11/28 10:16:49;;;;;;;8.53;7.63;;;0.70;99.90;;;;;;5086003;28;20241;-63
2023/11/28 10:19:16;;;;;;;8.73;7.43;;;0.80;99.90;;;;;;5066820;28;20252;-63
2023/11/28 10:21:43;;;;;;;9.13;7.93;;;0.70;99.90;;;;;;5074827;28;20278;-62
2023/11/28 10:24:10;;;;;;;13.47;8.67;;;0.80;99.90;;;;;;5086725;28;20652;-62
2023/11/28 10:26:38;;;;;;;10.43;7.90;;;0.80;99.90;;;;;;5086720;28;20234;-63
2023/11/28 10:29:07;;;;;;;10.77;8.50;;;0.80;99.90;;;;;;5086826;28;20239;-63
2023/11/28 10:31:37;;;;;;;10.03;8.20;;;0.90;99.90;;;;;;5086259;28;20225;-62
2023/11/28 10:34:08;;;;;;;12.90;9.57;;;0.90;99.90;;;;;;5087016;28;20210;-63
2023/11/28 10:36:40;;;;;;;13.23;9.77;;;1.00;99.90;;;;;;5086344;28;20575;-63
2023/11/28 10:39:08;;;;;;;12.77;9.80;;;1.10;99.90;;;;;;5086423;28;20559;-63
2023/11/28 10:41:35;;;;;;;11.70;9.80;;;1.10;99.90;;;;;;5086335;28;20684;-63
2023/11/28 10:44:03;;;;;;;13.77;9.80;;;1.10;99.90;;;;;;5086380;28;20213;-63
2023/11/28 10:46:34;;;;;;;11.57;9.53;;;1.10;99.90;;;;;;5085858;28;20317;-63
2023/11/28 10:49:01;;;;;;;13.00;9.43;;;1.10;99.90;;;;;;5086291;28;20197;-63
2023/11/28 10:51:30;;;;;;;14.00;9.87;;;1.10;99.90;;;;;;5086443;28;20210;-63
2023/11/28 10:54:04;;;;;;;12.67;9.73;;;1.10;99.90;;;;;;5086463;28;20252;-63
2023/11/28 10:56:43;;;;;;;10.23;9.13;;;1.10;99.90;;;;;;5086615;28;20201;-63
2023/11/28 10:59:20;;;;;;;12.17;9.00;;;1.10;99.90;;;;;;5086093;28;20234;-63
2023/11/28 11:01:49;;;;;;;12.97;10.10;;;1.10;99.90;;;;;;5085962;28;20230;-63
2023/11/28 11:04:16;;;;;;;12.10;9.27;;;1.00;99.90;;;;;;5086109;28;20246;-63
2023/11/28 11:06:43;;;;;;;10.23;9.10;;;1.10;99.90;;;;;;5086210;28;20286;-63
2023/11/28 11:09:12;;;;;;;9.83;8.10;;;1.10;99.90;;;;;;5086255;28;20245;-63
2023/11/28 11:11:40;;;;;;;9.83;7.97;;;1.10;99.90;;;;;;5085527;28;20811;-63
2023/11/28 11:14:16;;;;;;;9.83;8.73;;;1.20;99.90;;;;;;5086224;28;20301;-63
2023/11/28 11:16:51;;;;;;;9.90;8.23;;;1.30;99.90;;;;;;5085464;28;20289;-63
2023/11/28 11:19:19;;;;;;;9.90;8.90;;;1.40;99.90;;;;;;5085737;28;20207;-62
2023/11/28 11:21:52;;;;;;;9.87;7.73;;;1.40;99.90;;;;;;5085436;28;20206;-63
2023/11/28 11:24:20;;;;;;;9.23;8.10;;;1.50;99.90;;;;;;5065266;28;20284;-63
2023/11/28 11:26:49;;;;;;;9.47;8.37;;;1.50;99.90;;;;;;5064996;28;20230;-63
2023/11/28 11:29:30;;;;;;;9.97;8.37;;;1.60;99.90;;;;;;5065200;28;20238;-63
2023/11/28 11:31:59;;;;;;;10.37;8.53;;;1.50;99.90;;;;;;5065195;28;20280;-63
2023/11/28 11:34:36;;;;;;;9.90;7.67;;;1.50;99.90;;;;;;5065208;28;20725;-63
2023/11/28 11:37:07;;;;;;;9.33;8.13;;;1.60;99.90;;;;;;5066672;28;20199;-63
2023/11/28 11:39:35;;;;;;;8.33;7.47;;;1.60;99.90;;;;;;5085122;28;20293;-63
2023/11/28 11:42:02;;;;;;;9.90;7.53;;;1.60;99.90;;;;;;5085111;28;20744;-63
2023/11/28 11:44:29;;;;;;;8.40;7.60;;;1.70;99.90;;;;;;5085366;28;20207;-63
2023/11/28 11:47:02;;;;;;;8.47;7.50;;;1.60;99.90;;;;;;5085148;28;20936;-63
2023/11/28 11:49:29;;;;;;;9.43;7.37;;;1.70;99.90;;;;;;5085051;28;20983;-63
2023/11/28 11:51:57;;;;;;;9.20;7.53;;;1.60;99.90;;;;;;5084775;28;20664;-63
2023/11/28 11:54:23;;;;;;;12.27;7.47;;;1.60;99.90;;;;;;5084773;28;20728;-63
2023/11/28 11:56:51;;;;;;;8.47;7.33;;;1.60;99.90;;;;;;5084852;28;20218;-63
2023/11/28 11:59:20;;;;;;;7.73;6.50;;;1.50;99.90;;;;;;5084959;28;20294;-63
2023/11/28 12:01:52;;;;;;;9.23;7.63;;;1.50;99.90;;;;;;5084879;28;20213;-63
2023/11/28 12:04:22;;;;;;;7.20;6.50;;;1.50;99.90;;;;;;5085440;28;20286;-63
2023/11/28 12:07:02;;;;;;;7.13;6.40;;;1.50;99.90;;;;;;5085031;28;20238;-62
2023/11/28 12:09:29;;;;;;;8.13;6.50;;;1.40;99.90;;;;;;5065565;28;20243;-63
2023/11/28 12:11:56;;;;;;;7.50;6.80;;;1.40;99.90;;;;;;5064754;28;20340;-63
2023/11/28 12:14:23;;;;;;;7.30;6.60;;;1.50;99.90;;;;;;5078476;28;20340;-62
2023/11/28 12:16:50;;;;;;;6.60;6.00;;;1.60;99.90;;;;;;5084874;28;20238;-63
2023/11/28 12:19:16;;;;;;;7.07;6.40;;;1.70;99.90;;;;;;5084760;28;20301;-62
2023/11/28 12:21:46;;;;;;;7.53;6.20;;;1.80;99.90;;;;;;5084815;28;20673;-63
2023/11/28 12:24:12;;;;;;;7.13;6.43;;;2.00;99.90;;;;;;5084498;28;20206;-62
2023/11/28 12:26:41;;;;;;;7.33;6.20;;;2.20;99.90;;;;;;5084705;28;20736;-62
2023/11/28 12:29:08;;;;;;;9.73;6.93;;;2.40;99.90;;;;;;5084497;28;20234;-63
2023/11/28 12:31:35;;;;;;;9.07;6.63;;;2.60;99.90;;;;;;5084564;28;20238;-62
2023/11/28 12:34:02;;;;;;;7.03;5.87;;;2.80;99.90;;;;;;5084892;28;20744;-62
2023/11/28 12:36:29;;;;;;;6.23;5.73;;;3.00;99.90;;;;;;5084766;28;20307;-63
2023/11/28 12:38:59;;;;;;;6.87;6.27;;;3.10;99.90;;;;;;5084437;28;20371;-63
2023/11/28 12:41:37;;;;;;;5.97;5.47;;;3.20;99.90;;;;;;5085068;28;20629;-62
2023/11/28 12:44:08;;;;;;;7.13;6.27;;;3.40;99.90;;;;;;5084234;28;20198;-63
2023/11/28 12:46:36;;;;;;;6.53;5.83;;;3.40;99.90;;;;;;5084191;28;20646;-62
2023/11/28 12:49:05;;;;;;;6.33;5.50;;;3.50;99.90;;;;;;5084507;28;20230;-63
2023/11/28 12:51:31;;;;;;;5.63;5.13;;;3.50;99.90;;;;;;5084515;28;20664;-63
2023/11/28 12:54:06;;;;;;;5.87;5.27;;;3.50;99.90;;;;;;5084405;28;20249;-62